Time;durP1;ratioP1;P1;durP2;ratioP2;P2;SDS_P1;SDS_P2;PMS_P1;PMS_P2;Temp;Humidity;BMP_temperature;BMP_pressure;BME280_temperature;BME280_humidity;BME280_pressure;Samples;Min_cycle;Max_cycle;Signal;HPM_P1;HPM_P2
2022/12/14 00:03:45;;;;;;;28.58;5.80;;;;;;;-5.77;83.15;98327.88;4870046;28;20041;-64
2022/12/14 00:06:40;;;;;;;26.08;5.53;;;;;;;-5.91;82.22;98331.88;4897307;28;20041;-62
2022/12/14 00:09:25;;;;;;;20.90;6.03;;;;;;;-5.89;82.29;98342.91;4872504;28;20054;-63
2022/12/14 00:12:19;;;;;;;23.40;6.03;;;;;;;-5.90;82.85;98364.94;4809314;28;20088;-63
2022/12/14 00:15:21;;;;;;;30.55;7.22;;;;;;;-6.05;83.27;98363.84;4862262;28;20041;-63
2022/12/14 00:17:56;;;;;;;32.97;6.82;;;;;;;-6.13;84.32;98356.94;4878731;28;20048;-62
2022/12/14 00:20:40;;;;;;;26.90;6.57;;;;;;;-6.09;84.32;98348.53;4893204;28;20041;-64
2022/12/14 00:26:43;;;;;;;20.20;5.72;;;;;;;-5.86;83.08;98355.72;4846007;28;20041;-65
2022/12/14 00:29:21;;;;;;;18.45;6.05;;;;;;;-5.86;82.46;98360.78;4904655;28;20058;-65
2022/12/14 00:32:18;;;;;;;19.52;5.85;;;;;;;-5.88;81.95;98357.34;4851644;28;20037;-63
2022/12/14 00:37:57;;;;;;;21.27;5.97;;;;;;;-6.33;85.52;98355.69;4858010;28;20056;-64
2022/12/14 00:40:46;;;;;;;24.27;5.90;;;;;;;-6.32;86.21;98365.00;4801192;28;20074;-62
2022/12/14 00:43:46;;;;;;;24.13;5.72;;;;;;;-6.13;85.19;98351.00;4790683;28;20111;-66
2022/12/14 00:46:36;;;;;;;18.13;5.22;;;;;;;-6.05;83.30;98358.75;4838128;28;20117;-65
2022/12/14 00:49:16;;;;;;;20.45;5.00;;;;;;;-5.91;81.28;98367.47;4845178;28;20043;-65
2022/12/14 00:52:19;;;;;;;13.20;4.88;;;;;;;-5.84;80.05;98374.41;4844334;28;20145;-65
2022/12/14 00:55:07;;;;;;;;;;;;;;;-5.70;76.05;98356.81;4829864;28;20070;-66
2022/12/14 00:58:04;;;;;;;26.02;4.95;;;;;;;-5.52;74.54;98374.09;4859454;28;19949;-63
2022/12/14 01:00:40;;;;;;;22.10;4.57;;;;;;;-5.27;73.48;98357.53;4831695;28;20058;-66
2022/12/14 01:03:25;;;;;;;18.58;4.93;;;;;;;-5.04;72.59;98324.78;4835724;28;20320;-65
2022/12/14 01:06:02;;;;;;;26.88;4.65;;;;;;;-4.68;71.73;98336.34;4845816;28;20120;-63
2022/12/14 01:08:57;;;;;;;21.45;7.22;;;;;;;-4.66;71.65;98314.28;4875328;28;20064;-66
2022/12/14 01:11:46;;;;;;;28.45;5.82;;;;;;;-4.11;71.36;98337.88;4878409;28;20060;-65
2022/12/14 01:14:34;;;;;;;22.30;5.80;;;;;;;-3.76;69.36;98310.19;4887281;28;20076;-66
2022/12/14 01:17:22;;;;;;;16.50;5.13;;;;;;;-3.64;68.00;98311.13;4878770;28;20080;-64
2022/12/14 01:20:11;;;;;;;16.35;5.20;;;;;;;-3.78;65.70;98303.34;4824969;28;20105;-66
2022/12/14 01:22:57;;;;;;;14.75;4.40;;;;;;;-3.87;63.98;98305.81;4901869;28;20041;-65
2022/12/14 01:25:42;;;;;;;14.25;4.97;;;;;;;-3.97;62.90;98323.59;4892206;28;20177;-66
2022/12/14 01:31:20;;;;;;;16.08;4.35;;;;;;;-3.70;60.67;98309.38;4816613;28;20054;-67
2022/12/14 01:34:10;;;;;;;16.20;4.53;;;;;;;-3.82;59.56;98299.03;4851189;28;20065;-66
2022/12/14 01:40:01;;;;;;;13.10;4.15;;;;;;;-4.22;59.60;98311.38;4871644;28;20055;-64
2022/12/14 01:42:47;;;;;;;10.68;4.38;;;;;;;-4.58;60.29;98310.13;4877008;28;20049;-66
2022/12/14 01:45:25;;;;;;;13.82;4.50;;;;;;;-5.00;59.21;98256.09;4872054;28;20045;-66
2022/12/14 01:51:49;;;;;;;17.63;4.95;;;;;;;-4.27;60.48;98305.38;4885918;28;20064;-65
2022/12/14 01:54:44;;;;;;;21.00;5.22;;;;;;;-4.10;60.96;98280.91;4819596;28;20069;-64
2022/12/14 01:58:00;;;;;;;11.60;4.25;;;;;;;-4.04;59.47;98283.56;4792866;28;20100;-63
2022/12/14 02:01:06;;;;;;;11.13;4.03;;;;;;;-3.78;60.06;98288.03;4778625;29;20051;-64
2022/12/14 02:04:03;;;;;;;15.40;5.03;;;;;;;-4.05;58.00;98281.81;4800493;28;20357;-62
2022/12/14 02:06:43;;;;;;;29.92;5.90;;;;;;;-4.93;62.75;98286.75;4800449;28;20107;-63
2022/12/14 02:10:06;;;;;;;16.63;4.78;;;;;;;-5.87;69.82;98287.84;4806267;29;20058;-66
2022/12/14 02:12:42;;;;;;;;;;;;;;;-6.30;73.21;98302.38;4820448;28;20062;-65
2022/12/14 02:15:27;;;;;;;13.63;4.60;;;;;;;-6.33;73.88;98297.22;4785971;28;20882;-65
2022/12/14 02:18:13;;;;;;;16.77;5.57;;;;;;;-6.24;74.37;98297.41;4804907;28;20114;-65
2022/12/14 02:21:21;;;;;;;22.65;4.90;;;;;;;-6.16;74.17;98290.78;4783429;29;20066;-64
2022/12/14 02:25:14;;;;;;;31.92;6.32;;;;;;;-5.92;71.51;98279.28;4789377;29;20054;-65
2022/12/14 02:28:49;;;;;;;16.55;4.50;;;;;;;-5.85;71.67;98281.09;4817212;28;20043;-66
2022/12/14 02:31:49;;;;;;;13.80;4.00;;;;;;;-5.73;70.10;98266.06;4816005;29;20052;-63
2022/12/14 02:35:02;;;;;;;15.98;5.32;;;;;;;-5.74;70.22;98254.19;4762318;29;20092;-64
2022/12/14 02:37:57;;;;;;;17.85;4.68;;;;;;;-5.72;68.48;98244.84;4770281;29;20130;-64
2022/12/14 02:44:04;;;;;;;17.27;4.20;;;;;;;-5.36;64.15;98261.53;4825914;28;20055;-63
2022/12/14 02:47:01;;;;;;;20.83;5.30;;;;;;;-5.57;63.85;98256.09;4881281;28;20408;-64
2022/12/14 02:50:02;;;;;;;21.60;4.75;;;;;;;-5.73;64.95;98271.13;4893197;28;20160;-66
2022/12/14 02:52:53;;;;;;;17.75;5.15;;;;;;;-5.75;66.42;98256.69;4891358;28;20041;-65
2022/12/14 02:58:29;;;;;;;14.43;4.93;;;;;;;-5.97;68.63;98235.16;4841954;28;20053;-66
2022/12/14 03:01:33;;;;;;;11.10;4.22;;;;;;;-6.15;68.21;98210.28;4896293;28;20079;-65
2022/12/14 03:04:25;;;;;;;21.23;4.40;;;;;;;-6.43;68.93;98186.09;4915082;28;22125;-67
2022/12/14 03:07:44;;;;;;;10.43;3.97;;;;;;;-6.30;68.29;98193.09;4889851;28;20068;-66
2022/12/14 03:10:42;;;;;;;14.40;5.53;;;;;;;-6.10;66.60;98195.97;4889035;28;21300;-67
2022/12/14 03:14:07;;;;;;;13.52;3.80;;;;;;;-5.84;64.01;98181.09;4809860;28;20043;-67
2022/12/14 03:17:17;;;;;;;14.45;4.47;;;;;;;-5.86;62.31;98183.59;4756740;29;20048;-67
2022/12/14 03:20:12;;;;;;;7.68;3.78;;;;;;;-5.98;57.47;98162.25;4788351;29;20237;-70
2022/12/14 03:22:59;;;;;;;13.18;4.00;;;;;;;-5.95;58.60;98147.03;4750132;29;20215;-68
2022/12/14 03:25:45;;;;;;;12.90;4.25;;;;;;;-5.87;56.82;98150.50;4752614;29;20206;-68
2022/12/14 03:31:32;;;;;;;11.25;3.75;;;;;;;-5.97;53.92;98194.47;4787108;29;20144;-66
2022/12/14 03:34:31;;;;;;;12.88;3.75;;;;;;;-6.15;53.35;98185.72;4752286;29;20054;-68
2022/12/14 03:37:19;;;;;;;10.50;4.00;;;;;;;-6.20;54.39;98181.38;4773261;29;21268;-68
2022/12/14 03:40:13;;;;;;;8.40;3.25;;;;;;;-6.23;54.50;98182.19;4772795;29;20056;-67
2022/12/14 03:43:18;;;;;;;12.15;4.32;;;;;;;-6.27;55.24;98172.78;4756047;29;20052;-69
2022/12/14 03:46:16;;;;;;;12.77;5.15;;;;;;;-6.33;56.59;98170.16;4776119;29;20096;-65
2022/12/14 03:49:13;;;;;;;16.48;4.18;;;;;;;-6.41;56.93;98181.88;4738930;29;20223;-66
2022/12/14 03:52:06;;;;;;;13.07;4.38;;;;;;;-6.62;58.52;98183.19;4776047;29;20256;-67
2022/12/14 03:55:02;;;;;;;14.77;4.65;;;;;;;-6.93;62.91;98173.31;4822816;28;20049;-68
2022/12/14 03:58:06;;;;;;;12.38;4.72;;;;;;;-7.18;65.81;98185.50;4797701;28;20043;-68
2022/12/14 04:00:58;;;;;;;10.63;4.90;;;;;;;-7.41;69.65;98178.28;4839680;28;20121;-66
2022/12/14 04:03:46;;;;;;;16.17;4.55;;;;;;;-7.59;70.82;98182.94;4823712;28;20042;-68
2022/12/14 04:06:40;;;;;;;17.30;5.47;;;;;;;-7.63;72.53;98186.25;4837755;28;20038;-68
2022/12/14 04:09:34;;;;;;;24.00;6.07;;;;;;;-7.79;75.17;98163.88;4823125;28;22312;-69
2022/12/14 04:21:47;;;;;;;18.50;5.82;;;;;;;-8.37;84.04;98179.41;4896198;28;20050;-67
2022/12/14 04:27:36;;;;;;;19.05;5.75;;;;;;;-8.14;85.46;98156.31;4879275;28;20065;-68
2022/12/14 04:30:15;;;;;;;23.73;5.10;;;;;;;-8.02;85.68;98176.88;4883169;28;20066;-67
2022/12/14 04:33:45;;;;;;;16.05;5.47;;;;;;;-8.33;85.38;98084.97;4897908;28;20052;-66
2022/12/14 04:36:13;;;;;;;22.27;6.00;;;;;;;-7.87;85.19;98141.75;4900388;28;20048;-65
2022/12/14 04:41:54;;;;;;;22.13;5.13;;;;;;;-7.90;84.31;98151.81;4881913;28;20045;-66
2022/12/14 04:44:54;;;;;;;17.38;4.57;;;;;;;-8.01;84.04;98135.53;4913200;28;20052;-66
2022/12/14 04:47:46;;;;;;;15.55;4.65;;;;;;;-8.00;83.78;98149.91;4895369;28;21027;-66
2022/12/14 04:50:30;;;;;;;18.27;4.82;;;;;;;-8.08;84.10;98153.94;4916780;28;20047;-66
2022/12/14 04:53:25;;;;;;;15.32;3.88;;;;;;;-8.12;84.95;98162.28;4922328;28;20061;-66
2022/12/14 04:56:10;;;;;;;13.27;5.15;;;;;;;-8.33;84.86;98107.75;4816095;28;20056;-66
2022/12/14 04:58:52;;;;;;;12.32;4.53;;;;;;;-8.02;85.26;98143.94;4884746;28;20056;-66
2022/12/14 05:02:00;;;;;;;11.43;4.28;;;;;;;-7.90;84.82;98146.75;4886859;28;20056;-64
2022/12/14 05:04:55;;;;;;;17.92;4.95;;;;;;;-7.83;84.24;98151.16;4899837;28;20118;-65
2022/12/14 05:07:48;;;;;;;11.20;4.03;;;;;;;-7.85;83.44;98145.19;4866593;28;20045;-65
2022/12/14 05:10:27;;;;;;;10.85;4.03;;;;;;;-7.90;82.10;98151.81;4861047;28;20043;-65
2022/12/14 05:13:21;;;;;;;17.52;3.67;;;;;;;-7.99;81.85;98141.47;4902461;28;20114;-66
2022/12/14 05:19:03;;;;;;;14.50;4.47;;;;;;;-8.34;81.23;98088.31;4811481;28;20051;-65
2022/12/14 05:21:49;;;;;;;12.13;4.85;;;;;;;-7.96;81.86;98145.75;4784536;29;20284;-65
2022/12/14 05:24:36;;;;;;;26.17;4.53;;;;;;;-7.81;81.95;98146.97;4797213;28;20339;-65
2022/12/14 05:27:20;;;;;;;12.23;4.05;;;;;;;-7.70;81.49;98153.97;4830107;28;20058;-65
2022/12/14 05:30:19;;;;;;;11.57;4.75;;;;;;;-7.73;80.71;98151.38;4821983;28;20066;-64
2022/12/14 05:33:04;;;;;;;10.88;4.25;;;;;;;-7.76;80.18;98136.06;4840797;28;20082;-66
2022/12/14 05:36:24;;;;;;;11.18;3.75;;;;;;;-7.66;80.48;98148.09;4821279;28;20283;-65
2022/12/14 05:39:18;;;;;;;7.97;3.70;;;;;;;-7.79;80.08;98123.31;4787375;29;20059;-65
2022/12/14 05:41:59;;;;;;;6.38;3.60;;;;;;;-7.79;80.37;98130.94;4795756;28;20360;-65
2022/12/14 05:44:58;;;;;;;9.50;3.63;;;;;;;-7.68;79.51;98148.09;4765297;28;20051;-66
2022/12/14 05:50:38;;;;;;;10.55;5.10;;;;;;;-7.74;78.70;98158.09;4792530;28;20042;-65
2022/12/14 05:53:22;;;;;;;14.20;4.43;;;;;;;-7.66;77.86;98171.81;4837343;28;20086;-65
2022/12/14 05:56:08;;;;;;;12.73;4.80;;;;;;;-7.70;77.45;98169.16;4806841;28;20053;-66
2022/12/14 05:58:55;;;;;;;14.48;4.72;;;;;;;-7.78;77.26;98163.94;4829605;28;20053;-66
2022/12/14 06:01:40;;;;;;;10.95;3.67;;;;;;;-7.76;77.37;98169.00;4871343;28;20041;-65
2022/12/14 06:04:27;;;;;;;7.88;3.95;;;;;;;-7.90;77.11;98172.09;4860131;28;20042;-65
2022/12/14 06:07:17;;;;;;;9.85;3.88;;;;;;;-7.96;77.52;98171.97;4823417;28;20044;-65
2022/12/14 06:10:21;;;;;;;9.43;4.03;;;;;;;-8.09;77.71;98180.09;4883727;28;20319;-65
2022/12/14 06:18:48;;;;;;;11.65;4.65;;;;;;;-8.96;76.96;98091.06;4877347;28;20092;-66
2022/12/14 06:24:16;;;;;;;11.25;4.00;;;;;;;-8.76;77.42;98180.16;4861560;28;20072;-66
2022/12/14 06:27:01;;;;;;;13.02;4.50;;;;;;;-8.80;77.11;98191.00;4833421;28;20039;-66
2022/12/14 06:29:43;;;;;;;12.25;4.00;;;;;;;-9.02;77.21;98171.00;4832693;28;20389;-65
2022/12/14 06:32:24;;;;;;;9.55;4.25;;;;;;;-8.96;77.56;98189.75;4892090;28;20254;-66
2022/12/14 06:35:03;;;;;;;9.70;3.90;;;;;;;-8.97;77.88;98195.63;4888966;28;20051;-66
2022/12/14 06:37:50;;;;;;;8.77;3.95;;;;;;;-8.81;78.35;98191.84;4848100;28;20058;-66
2022/12/14 06:40:43;;;;;;;8.05;3.83;;;;;;;-9.15;78.03;98130.19;4875940;28;20053;-66
2022/12/14 06:43:46;;;;;;;7.88;3.97;;;;;;;-8.82;77.67;98185.06;4879774;28;20283;-66
2022/12/14 06:46:33;;;;;;;12.73;4.53;;;;;;;-8.79;77.42;98185.13;4902438;28;20062;-66
2022/12/14 06:49:16;;;;;;;11.07;4.03;;;;;;;-8.90;77.06;98181.47;4884718;28;20096;-66
2022/12/14 06:54:54;;;;;;;11.57;5.25;;;;;;;-8.85;76.33;98195.09;4841775;28;20042;-65
2022/12/14 06:57:38;;;;;;;14.38;5.03;;;;;;;-8.70;76.94;98208.16;4866819;28;20045;-67
2022/12/14 07:00:33;;;;;;;11.18;4.18;;;;;;;-8.67;76.74;98204.84;4880030;28;20426;-67
2022/12/14 07:03:32;;;;;;;11.38;4.43;;;;;;;-8.74;76.40;98198.75;4895401;28;20069;-65
2022/12/14 07:09:16;;;;;;;10.40;4.13;;;;;;;-9.23;76.84;98156.97;4859482;28;20083;-66
2022/12/14 07:14:47;;;;;;;10.95;4.35;;;;;;;-8.83;77.70;98198.53;4979898;27;20163;-79
2022/12/14 07:17:18;;;;;;;12.18;4.57;;;;;;;-8.97;77.45;98184.63;4937479;28;20051;-79
2022/12/14 07:19:49;;;;;;;11.05;4.43;;;;;;;-8.77;77.62;98207.97;4962611;28;20048;-78
2022/12/14 07:22:29;;;;;;;15.45;3.70;;;;;;;-8.69;77.79;98212.38;4952149;28;20340;-79
2022/12/14 07:25:02;;;;;;;7.15;4.25;;;;;;;-8.73;77.64;98205.56;4939029;28;20073;-75
2022/12/14 07:27:35;;;;;;;10.90;4.55;;;;;;;-8.65;77.77;98198.16;4945926;28;20044;-78
2022/12/14 07:30:12;;;;;;;14.75;4.90;;;;;;;-8.66;77.29;98200.63;4954543;28;20043;-82
2022/12/14 07:32:49;;;;;;;14.73;5.78;;;;;;;-8.61;77.99;98199.09;4955560;28;20563;-78
2022/12/14 07:35:22;;;;;;;11.30;5.10;;;;;;;-8.63;77.57;98190.63;4947704;28;20051;-79
2022/12/14 07:37:53;;;;;;;38.45;10.40;;;;;;;-8.52;77.51;98195.13;4951736;28;20044;-78
2022/12/14 07:40:28;;;;;;;28.00;9.35;;;;;;;-8.42;77.71;98200.44;4953769;28;20068;-79
2022/12/14 07:43:01;;;;;;;18.80;5.70;;;;;;;-8.43;76.95;98202.13;4946497;28;20419;-78
2022/12/14 07:45:33;;;;;;;16.88;5.38;;;;;;;-8.50;76.33;98202.78;4956538;28;20056;-76
2022/12/14 07:48:07;;;;;;;14.73;4.85;;;;;;;-8.57;76.31;98216.94;4964498;28;20268;-75
2022/12/14 07:50:37;;;;;;;17.27;5.82;;;;;;;-8.76;76.18;98218.13;4941199;28;20344;-77
2022/12/14 07:53:09;;;;;;;14.65;4.97;;;;;;;-9.04;76.33;98198.78;4936732;28;20053;-76
2022/12/14 07:55:40;;;;;;;11.05;4.55;;;;;;;-9.08;76.53;98196.13;4949523;28;20052;-76
2022/12/14 07:58:11;;;;;;;7.80;4.45;;;;;;;-9.01;76.22;98219.13;4955600;28;20048;-76
2022/12/14 08:00:52;;;;;;;16.73;5.88;;;;;;;-9.19;76.10;98214.38;4944182;28;20044;-77
2022/12/14 08:03:32;;;;;;;15.05;5.15;;;;;;;-9.24;76.31;98213.41;4945272;28;20068;-77
2022/12/14 08:06:07;;;;;;;13.35;4.88;;;;;;;-9.26;76.41;98212.53;4938036;28;20127;-77
2022/12/14 08:08:38;;;;;;;10.10;5.15;;;;;;;-9.20;76.63;98212.69;4937138;28;20121;-78
2022/12/14 08:11:13;;;;;;;14.13;5.93;;;;;;;-9.08;76.65;98211.31;4947648;28;20048;-77
2022/12/14 08:13:47;;;;;;;12.95;5.07;;;;;;;-9.09;76.25;98210.44;4933250;28;20352;-77
2022/12/14 08:16:21;;;;;;;16.85;5.53;;;;;;;-9.14;75.70;98222.97;4912513;28;20374;-77
2022/12/14 08:18:56;;;;;;;14.05;5.88;;;;;;;-9.08;75.52;98223.94;4958093;28;20043;-77
2022/12/14 08:21:27;;;;;;;14.85;5.25;;;;;;;-9.31;74.77;98211.50;4943708;28;20063;-77
2022/12/14 08:23:59;;;;;;;10.85;5.05;;;;;;;-9.49;75.51;98213.50;4950051;28;20105;-77
2022/12/14 08:26:30;;;;;;;13.75;5.72;;;;;;;-9.42;76.13;98216.25;4932876;28;20051;-77
2022/12/14 08:29:05;;;;;;;11.25;5.50;;;;;;;-9.56;75.53;98213.34;4938375;28;20041;-78
2022/12/14 08:31:41;;;;;;;15.48;6.32;;;;;;;-9.48;75.88;98225.31;4941664;28;20487;-77
2022/12/14 08:34:12;;;;;;;13.68;5.45;;;;;;;-9.49;75.92;98218.56;4930639;28;20105;-78
2022/12/14 08:36:46;;;;;;;13.30;5.03;;;;;;;-9.55;75.30;98225.16;4944355;28;20044;-77
2022/12/14 08:39:18;;;;;;;14.40;6.13;;;;;;;-9.67;75.27;98228.97;4939516;28;20144;-77
2022/12/14 08:41:49;;;;;;;14.15;5.30;;;;;;;-9.57;75.88;98231.81;4934810;28;20079;-77
2022/12/14 08:44:20;;;;;;;15.02;6.22;;;;;;;-9.46;75.68;98228.75;4933239;28;20041;-77
2022/12/14 08:46:55;;;;;;;15.25;6.28;;;;;;;-9.66;75.52;98221.47;4941805;28;20047;-78
2022/12/14 08:52:13;;;;;;;17.67;6.53;;;;;;;-9.76;74.65;98224.47;4926428;28;20045;-77
2022/12/14 08:55:13;;;;;;;17.60;6.45;;;;;;;-9.68;74.12;98242.41;4926186;28;20423;-78
2022/12/14 08:57:46;;;;;;;19.00;5.68;;;;;;;-9.59;74.23;98243.56;4939349;28;20054;-77
2022/12/14 09:00:18;;;;;;;13.95;5.88;;;;;;;-9.67;74.15;98247.53;4928006;28;20052;-77
2022/12/14 09:02:53;;;;;;;24.33;6.28;;;;;;;-9.85;74.05;98236.84;4947852;28;20055;-77
2022/12/14 09:05:24;;;;;;;21.90;7.18;;;;;;;-9.81;74.09;98247.13;4932966;28;20090;-77
2022/12/14 09:07:56;;;;;;;23.02;6.50;;;;;;;-9.81;74.40;98249.63;4934204;28;20271;-77
2022/12/14 09:10:29;;;;;;;16.92;6.45;;;;;;;-10.05;74.71;98221.91;4941122;28;20049;-78
2022/12/14 09:13:00;;;;;;;25.13;6.65;;;;;;;-9.83;74.43;98242.81;4938114;28;20266;-77
2022/12/14 09:15:34;;;;;;;15.35;6.32;;;;;;;-9.90;74.51;98251.00;4930543;28;20245;-77
2022/12/14 09:18:27;;;;;;;16.63;5.95;;;;;;;-10.09;73.91;98245.34;4926372;28;20060;-77
2022/12/14 09:21:07;;;;;;;23.08;6.03;;;;;;;-10.11;73.60;98252.00;4902456;28;20088;-78
2022/12/14 09:23:41;;;;;;;15.48;6.10;;;;;;;-10.36;72.36;98244.47;4915376;28;20095;-77
2022/12/14 09:26:18;;;;;;;16.25;5.18;;;;;;;-10.74;71.89;98191.03;4913969;28;20050;-78
2022/12/14 09:28:51;;;;;;;18.00;5.15;;;;;;;-10.58;70.76;98222.69;4917807;28;20051;-77
2022/12/14 09:31:25;;;;;;;21.52;6.25;;;;;;;-10.53;69.30;98234.69;4903638;28;20037;-77
2022/12/14 09:34:00;;;;;;;16.63;6.13;;;;;;;-10.48;68.09;98250.00;4920167;28;20048;-77
2022/12/14 09:36:32;;;;;;;14.88;5.47;;;;;;;-10.55;66.37;98248.06;4905056;28;20067;-77
2022/12/14 09:39:05;;;;;;;18.92;5.35;;;;;;;-10.56;65.53;98251.38;4937059;28;20037;-77
2022/12/14 09:41:58;;;;;;;16.75;6.00;;;;;;;-10.53;64.73;98256.50;4908126;28;20049;-77
2022/12/14 09:44:46;;;;;;;14.30;5.05;;;;;;;-10.52;64.19;98249.00;4909639;28;20068;-77
2022/12/14 09:47:20;;;;;;;14.93;5.18;;;;;;;-10.54;63.43;98235.47;4917235;28;20046;-77
2022/12/14 09:49:57;;;;;;;11.10;4.55;;;;;;;-10.51;62.93;98250.72;4918166;28;20071;-77
2022/12/14 09:52:41;;;;;;;18.05;5.65;;;;;;;-10.49;62.74;98249.09;4916932;28;20048;-77
2022/12/14 09:55:46;;;;;;;16.45;4.80;;;;;;;-10.58;62.70;98227.72;4928019;28;20119;-77
2022/12/14 09:58:21;;;;;;;15.65;5.32;;;;;;;-10.66;62.92;98204.75;4911827;28;20094;-77
2022/12/14 10:00:59;;;;;;;12.65;4.70;;;;;;;-10.62;63.37;98216.69;4913654;28;20365;-77
2022/12/14 10:03:48;;;;;;;12.95;5.65;;;;;;;-10.38;63.32;98266.28;4921541;28;20079;-77
2022/12/14 10:06:35;;;;;;;13.00;4.22;;;;;;;-10.52;65.11;98259.09;4899377;28;20071;-77
2022/12/14 10:09:19;;;;;;;12.18;4.38;;;;;;;-10.47;66.05;98277.78;4897081;28;20116;-78
2022/12/14 10:12:00;;;;;;;9.93;4.70;;;;;;;-10.42;66.96;98281.31;4911329;28;20052;-77
2022/12/14 10:18:45;;;;;;;10.95;4.95;;;;;;;-10.37;68.41;98278.13;4913728;28;20044;-77
2022/12/14 10:22:13;;;;;;;13.55;5.13;;;;;;;-10.56;68.36;98247.16;4918976;28;20086;-77
2022/12/14 10:25:02;;;;;;;14.18;5.18;;;;;;;-10.38;68.53;98267.16;4915502;28;20052;-77
2022/12/14 10:27:38;;;;;;;13.80;6.07;;;;;;;-10.35;68.00;98266.41;4917973;28;20049;-77
2022/12/14 10:30:30;;;;;;;12.80;5.85;;;;;;;-10.59;68.55;98233.59;4892943;28;20045;-78
2022/12/14 10:33:18;;;;;;;15.55;5.20;;;;;;;-10.78;68.76;98171.53;4918542;28;20332;-78
2022/12/14 10:35:52;;;;;;;13.32;5.60;;;;;;;-10.49;69.00;98225.53;4910239;28;20107;-77
2022/12/14 10:38:38;;;;;;;14.23;5.40;;;;;;;-10.54;69.29;98220.31;4928208;28;20036;-77
2022/12/14 10:41:18;;;;;;;10.75;5.20;;;;;;;-10.54;69.85;98222.84;4910981;28;20129;-77
2022/12/14 10:44:00;;;;;;;13.73;5.40;;;;;;;-10.20;70.35;98276.97;4915792;28;20341;-77
2022/12/14 10:46:56;;;;;;;14.85;5.82;;;;;;;-10.09;70.67;98280.72;4906861;28;20044;-77
2022/12/14 10:49:32;;;;;;;12.27;4.55;;;;;;;-10.25;70.81;98263.34;4902708;28;21255;-77
2022/12/14 10:52:08;;;;;;;17.30;6.22;;;;;;;-10.18;71.38;98280.44;4914512;28;20041;-77
2022/12/14 10:54:47;;;;;;;15.52;5.82;;;;;;;-10.17;71.81;98277.06;4907501;28;20566;-78
2022/12/14 10:57:23;;;;;;;15.18;5.65;;;;;;;-10.50;72.31;98239.81;4906403;28;20044;-77
2022/12/14 10:59:55;;;;;;;16.80;5.97;;;;;;;-10.80;72.85;98181.59;4924658;28;20069;-77
2022/12/14 11:02:42;;;;;;;12.82;5.03;;;;;;;-10.33;73.28;98258.06;4916128;28;20088;-78
2022/12/14 11:05:32;;;;;;;13.43;5.20;;;;;;;-10.22;73.90;98260.91;4913091;28;20056;-77
2022/12/14 11:08:41;;;;;;;10.95;5.25;;;;;;;-10.10;73.99;98291.63;4916072;28;20060;-77
2022/12/14 11:11:25;;;;;;;12.85;6.22;;;;;;;-10.16;74.12;98275.41;4921152;28;20046;-77
2022/12/14 11:14:08;;;;;;;12.68;5.25;;;;;;;-10.57;74.44;98224.41;4925094;28;20736;-77
2022/12/14 11:16:44;;;;;;;17.48;7.90;;;;;;;-10.37;74.39;98257.91;4890033;28;20122;-77
2022/12/14 11:19:18;;;;;;;25.50;10.98;;;;;;;-10.54;74.40;98250.63;4920108;28;20312;-76
2022/12/14 11:21:51;;;;;;;21.15;7.90;;;;;;;-10.34;74.45;98288.31;4911236;28;20547;-77
2022/12/14 11:24:34;;;;;;;19.88;6.70;;;;;;;-10.44;74.37;98267.78;4900046;28;20111;-77
2022/12/14 11:27:15;;;;;;;145.25;35.63;;;;;;;-10.24;74.53;98290.31;4901887;28;20059;-77
2022/12/14 11:29:49;;;;;;;90.93;25.27;;;;;;;-10.67;74.64;98218.19;4925698;28;20053;-78
2022/12/14 11:32:24;;;;;;;153.15;40.78;;;;;;;-10.41;74.64;98274.59;4924449;28;20108;-77
2022/12/14 11:34:59;;;;;;;51.08;15.77;;;;;;;-10.69;74.81;98233.28;4922108;28;20114;-77
2022/12/14 11:37:31;;;;;;;23.98;7.93;;;;;;;-10.46;74.70;98274.47;4929774;28;20045;-77
2022/12/14 11:40:04;;;;;;;44.53;13.45;;;;;;;-10.42;74.78;98299.00;4923196;28;20059;-77
2022/12/14 11:42:38;;;;;;;69.18;22.38;;;;;;;-10.47;74.89;98300.50;4902776;28;20041;-77
2022/12/14 11:45:31;;;;;;;18.80;7.13;;;;;;;-10.76;75.32;98258.25;4915383;28;20048;-77
2022/12/14 11:48:26;;;;;;;15.95;6.15;;;;;;;-10.65;74.83;98293.16;4902880;28;20090;-76
2022/12/14 11:51:12;;;;;;;14.32;5.13;;;;;;;-10.83;75.08;98257.19;4912792;28;20041;-78
2022/12/14 11:53:43;;;;;;;17.27;6.25;;;;;;;-10.71;75.68;98271.88;4897686;28;20060;-78
2022/12/14 11:56:19;;;;;;;15.82;5.18;;;;;;;-10.71;75.33;98264.31;4944847;28;20403;-77
2022/12/14 11:58:54;;;;;;;19.67;6.45;;;;;;;-11.24;75.07;98172.47;4911949;28;20048;-77
2022/12/14 12:01:27;;;;;;;16.88;5.82;;;;;;;-10.68;75.18;98287.16;4920435;28;20075;-78
2022/12/14 12:04:02;;;;;;;15.77;5.47;;;;;;;-10.46;74.95;98319.91;4915141;28;20045;-78
2022/12/14 12:06:33;;;;;;;15.07;5.57;;;;;;;-11.08;74.75;98235.28;4926627;28;20045;-78
2022/12/14 12:09:23;;;;;;;16.98;5.93;;;;;;;-10.69;74.24;98315.69;4931538;28;20056;-77
2022/12/14 12:12:00;;;;;;;13.35;5.47;;;;;;;-10.68;74.33;98307.34;4923078;28;20085;-79
2022/12/14 12:14:38;;;;;;;17.13;6.70;;;;;;;-10.64;74.19;98309.16;4945302;28;20225;-78
2022/12/14 12:17:19;;;;;;;18.13;5.53;;;;;;;-10.60;73.86;98323.59;4917580;28;20048;-78
2022/12/14 12:19:53;;;;;;;14.02;5.15;;;;;;;-10.68;73.08;98335.09;4920130;28;20071;-79
2022/12/14 12:22:30;;;;;;;16.40;5.63;;;;;;;-10.94;71.87;98309.75;4927721;28;20056;-77
2022/12/14 12:25:08;;;;;;;17.02;5.68;;;;;;;-10.97;71.25;98322.25;4925248;28;20400;-77
2022/12/14 12:28:16;;;;;;;13.40;5.00;;;;;;;-11.11;70.81;98325.91;4941087;28;20130;-78
2022/12/14 12:30:58;;;;;;;15.82;5.18;;;;;;;-11.06;71.19;98326.94;4942806;28;20045;-78
2022/12/14 12:34:03;;;;;;;18.15;4.90;;;;;;;-11.02;71.00;98343.94;4930427;28;20107;-78
2022/12/14 12:36:43;;;;;;;18.65;5.75;;;;;;;-11.04;71.08;98353.09;4900768;28;20089;-77
2022/12/14 12:39:48;;;;;;;13.73;5.30;;;;;;;-11.16;70.70;98347.59;4930486;28;20061;-79
2022/12/14 12:42:26;;;;;;;14.30;5.22;;;;;;;-11.51;70.88;98314.31;4933821;28;20044;-79
2022/12/14 12:45:03;;;;;;;14.38;4.90;;;;;;;-11.20;70.08;98364.25;4932908;28;20049;-77
2022/12/14 12:47:44;;;;;;;17.33;5.22;;;;;;;-11.49;69.15;98327.84;4940459;28;20057;-78
2022/12/14 12:50:20;;;;;;;15.27;5.30;;;;;;;-11.25;68.86;98357.34;4931280;28;20061;-77
2022/12/14 12:52:59;;;;;;;13.82;5.53;;;;;;;-11.32;69.17;98381.44;4944043;28;20052;-78
2022/12/14 12:55:37;;;;;;;15.25;4.75;;;;;;;-11.43;68.64;98383.53;4927627;28;20054;-77
2022/12/14 12:58:17;;;;;;;12.73;5.18;;;;;;;-11.38;68.69;98386.22;4913282;28;20112;-78
2022/12/14 13:00:54;;;;;;;11.77;5.03;;;;;;;-11.32;68.70;98379.78;4921414;28;20075;-78
2022/12/14 13:03:36;;;;;;;14.98;5.10;;;;;;;-11.30;68.81;98375.66;4930531;28;20040;-76
2022/12/14 13:06:18;;;;;;;12.13;4.88;;;;;;;-11.37;68.66;98367.78;4885750;28;20105;-78
2022/12/14 13:09:01;;;;;;;15.43;5.68;;;;;;;-11.43;69.01;98332.25;4935202;28;20050;-78
2022/12/14 13:11:38;;;;;;;13.48;5.05;;;;;;;-11.13;69.26;98372.91;4919330;28;20084;-78
2022/12/14 13:14:19;;;;;;;16.05;5.30;;;;;;;-10.99;70.21;98370.94;4934135;28;20060;-79
2022/12/14 13:16:53;;;;;;;20.02;6.55;;;;;;;-10.96;69.99;98366.00;4945731;28;20110;-77
2022/12/14 13:19:38;;;;;;;15.27;5.25;;;;;;;-11.04;70.06;98378.31;4935557;28;20056;-78
2022/12/14 13:22:29;;;;;;;15.32;5.13;;;;;;;-11.18;69.79;98369.34;4913542;28;20040;-77
2022/12/14 13:25:07;;;;;;;17.17;5.68;;;;;;;-11.24;69.50;98381.72;4928529;28;20044;-78
2022/12/14 13:28:04;;;;;;;13.70;4.63;;;;;;;-11.23;69.66;98375.88;4924922;28;20094;-79
2022/12/14 13:30:52;;;;;;;22.05;5.82;;;;;;;-11.17;69.35;98371.09;4917383;28;20352;-77
2022/12/14 13:33:52;;;;;;;14.80;5.28;;;;;;;-11.26;68.87;98380.81;4918996;28;20059;-77
2022/12/14 13:36:55;;;;;;;16.85;5.65;;;;;;;-11.18;68.93;98384.47;4918952;28;20041;-77
2022/12/14 13:39:46;;;;;;;12.40;4.93;;;;;;;-11.23;68.01;98380.91;4917832;28;20061;-78
2022/12/14 13:42:33;;;;;;;18.10;6.28;;;;;;;-11.21;67.90;98377.66;4916685;28;20111;-77
2022/12/14 13:45:06;;;;;;;16.98;5.38;;;;;;;-11.22;66.96;98377.63;4917440;28;20040;-78
2022/12/14 13:47:41;;;;;;;14.50;4.40;;;;;;;-11.41;66.93;98361.75;4924467;28;20053;-78
2022/12/14 13:50:27;;;;;;;14.00;4.88;;;;;;;-11.26;67.05;98386.69;4912091;28;20048;-77
2022/12/14 13:53:28;;;;;;;19.50;5.85;;;;;;;-11.42;67.97;98377.69;4907971;28;20107;-77
2022/12/14 13:56:02;;;;;;;13.90;4.85;;;;;;;-11.62;68.52;98350.84;4916810;28;20067;-76
2022/12/14 13:58:38;;;;;;;18.33;4.88;;;;;;;-11.83;68.99;98286.19;4926984;28;20055;-76